createdAt,value
2019-06-01T00:01:30.425Z,100744.61
2019-06-01T00:04:08.051Z,100748.90
2019-06-01T00:06:46.954Z,100749.53
2019-06-01T00:09:24.440Z,100750.91
2019-06-01T00:12:04.265Z,100758.80
2019-06-01T00:14:41.851Z,100759.84
2019-06-01T00:17:19.149Z,100763.30
2019-06-01T00:19:56.479Z,100761.16
2019-06-01T00:22:35.518Z,100772.50
2019-06-01T00:25:12.905Z,100776.75
2019-06-01T00:27:51.334Z,100776.47
2019-06-01T00:30:28.987Z,100779.59
2019-06-01T00:33:06.898Z,100785.09
2019-06-01T00:35:45.478Z,100785.36
2019-06-01T00:38:23.748Z,100789.62
2019-06-01T00:41:01.416Z,100796.22
2019-06-01T00:43:42.087Z,100795.03
2019-06-01T00:46:19.879Z,100796.95
2019-06-01T00:48:56.973Z,100797.05
2019-06-01T00:51:34.644Z,100793.89
2019-06-01T00:54:12.687Z,100805.00
2019-06-01T00:56:49.981Z,100801.46
2019-06-01T00:59:27.559Z,100801.70
2019-06-01T01:02:04.945Z,100800.20
2019-06-01T01:04:44.150Z,100805.31
2019-06-01T01:07:21.534Z,100806.91
2019-06-01T01:09:59.300Z,100808.53
2019-06-01T01:12:39.268Z,100804.03
2019-06-01T01:15:19.510Z,100809.52
2019-06-01T01:17:57.144Z,100819.42
2019-06-01T01:20:34.635Z,100827.47
2019-06-01T01:23:12.648Z,100823.53
2019-06-01T01:25:50.577Z,100829.73
2019-06-01T01:28:29.218Z,100827.58
2019-06-01T01:31:13.673Z,100825.14
2019-06-01T01:33:45.588Z,100831.08
2019-06-01T01:36:23.361Z,100825.41
2019-06-01T01:39:00.427Z,100830.66
2019-06-01T01:41:39.588Z,100832.05
2019-06-01T01:44:16.762Z,100839.42
2019-06-01T01:46:55.516Z,100842.92
2019-06-01T01:49:32.955Z,100835.69
2019-06-01T01:52:10.544Z,100835.99
2019-06-01T01:54:47.656Z,100842.89
2019-06-01T01:57:26.735Z,100845.70
2019-06-01T02:00:03.971Z,100851.94
2019-06-01T02:02:42.610Z,100853.27
2019-06-01T02:05:20.322Z,100859.19
2019-06-01T02:08:00.128Z,100853.54
2019-06-01T02:10:37.860Z,100855.47
2019-06-01T02:13:15.991Z,100855.91
2019-06-01T02:15:54.118Z,100865.86
2019-06-01T02:18:34.327Z,100868.30
2019-06-01T02:21:11.508Z,100867.97
2019-06-01T02:23:49.593Z,100868.67
2019-06-01T02:26:27.308Z,100870.63
2019-06-01T02:29:06.404Z,100874.41
2019-06-01T02:31:43.829Z,100878.36
2019-06-01T02:34:21.566Z,100880.25
2019-06-01T02:37:00.204Z,100881.28
2019-06-01T02:39:37.975Z,100883.72
2019-06-01T02:42:16.118Z,100880.27
2019-06-01T02:44:54.976Z,100879.76
2019-06-01T02:47:33.757Z,100886.64
2019-06-01T02:50:13.429Z,100887.36
2019-06-01T02:52:50.840Z,100883.52
2019-06-01T02:55:27.974Z,100883.73
2019-06-01T02:58:06.705Z,100877.02
2019-06-01T03:01:37.106Z,100883.86
2019-06-01T03:04:15.043Z,100875.05
2019-06-01T03:06:52.934Z,100875.13
2019-06-01T03:09:30.536Z,100873.98
2019-06-01T03:12:09.567Z,100868.06
2019-06-01T03:14:48.216Z,100867.92
2019-06-01T03:17:27.703Z,100861.35
2019-06-01T03:20:07.897Z,100854.36
2019-06-01T03:22:48.288Z,100850.17
2019-06-01T03:25:25.909Z,100847.43
2019-06-01T03:28:04.168Z,100844.34
2019-06-01T03:30:46.309Z,100844.23
2019-06-01T03:33:23.930Z,100845.81
2019-06-01T03:36:02.821Z,100846.14
2019-06-01T03:38:42.367Z,100825.05
2019-06-01T03:41:20.066Z,100844.74
2019-06-01T03:43:58.354Z,100843.55
2019-06-01T03:46:36.484Z,100840.00
2019-06-01T03:49:14.092Z,100836.17
2019-06-01T03:51:51.547Z,100838.50
2019-06-01T03:54:30.455Z,100832.51
2019-06-01T03:57:09.102Z,100839.72
2019-06-01T03:59:46.279Z,100838.87
2019-06-01T04:02:32.748Z,100814.66
2019-06-01T04:05:03.631Z,100833.40
2019-06-01T04:07:40.985Z,100828.62
2019-06-01T04:10:18.663Z,100827.71
2019-06-01T04:12:55.651Z,100826.64
2019-06-01T04:15:33.647Z,100823.81
2019-06-01T04:18:13.892Z,100821.04
2019-06-01T04:20:51.998Z,100821.89
2019-06-01T04:23:29.774Z,100812.44
2019-06-01T04:26:10.155Z,100812.50
2019-06-01T04:28:47.539Z,100805.23
2019-06-01T04:31:28.077Z,100803.84
2019-06-01T04:34:06.801Z,100797.83
2019-06-01T04:36:44.915Z,100799.79
2019-06-01T04:39:22.598Z,100792.86
2019-06-01T04:42:00.539Z,100787.67
2019-06-01T04:44:38.956Z,100773.67
2019-06-01T04:47:17.344Z,100771.03
2019-06-01T04:49:55.357Z,100770.84
2019-06-01T04:52:32.850Z,100769.37
2019-06-01T04:55:11.095Z,100769.61
2019-06-01T04:57:50.636Z,100765.67
2019-06-01T05:00:28.233Z,100770.88
2019-06-01T05:03:08.443Z,100760.28
2019-06-01T05:05:44.657Z,100755.52
2019-06-01T05:08:23.358Z,100745.57
2019-06-01T05:11:05.041Z,100743.97
2019-06-01T05:13:40.888Z,100741.00
2019-06-01T05:16:18.905Z,100743.81
2019-06-01T05:18:56.935Z,100732.22
2019-06-01T05:21:34.265Z,100733.24
2019-06-01T05:24:11.249Z,100724.54
2019-06-01T05:26:49.230Z,100726.61
2019-06-01T05:29:28.230Z,100710.88
2019-06-01T05:32:06.153Z,100709.43
2019-06-01T05:34:46.787Z,100694.03
2019-06-01T05:37:24.313Z,100684.91
2019-06-01T05:40:02.877Z,100678.33
2019-06-01T05:42:40.281Z,100685.55
2019-06-01T05:45:19.272Z,100676.89
2019-06-01T05:47:57.443Z,100676.42
2019-06-01T05:50:36.021Z,100673.48
2019-06-01T05:53:16.787Z,100657.03
2019-06-01T05:55:55.780Z,100648.67
2019-06-01T05:58:32.860Z,100648.77
2019-06-01T06:01:12.507Z,100641.89
2019-06-01T06:03:49.533Z,100641.53
2019-06-01T06:06:26.698Z,100638.93
2019-06-01T06:09:04.361Z,100630.33
2019-06-01T06:11:42.848Z,100630.14
2019-06-01T06:14:22.262Z,100628.77
2019-06-01T06:17:00.168Z,100621.58
2019-06-01T06:19:37.480Z,100617.08
2019-06-01T06:22:16.182Z,100612.27
2019-06-01T06:24:53.273Z,100614.70
2019-06-01T06:27:30.866Z,100608.72
2019-06-01T06:30:08.472Z,100604.19
2019-06-01T06:32:48.201Z,100610.34
2019-06-01T06:35:25.671Z,100596.09
2019-06-01T06:38:02.853Z,100593.58
2019-06-01T06:40:40.170Z,100587.78
2019-06-01T06:43:24.414Z,100586.34
2019-06-01T06:45:57.995Z,100584.81
2019-06-01T06:48:35.834Z,100572.59
2019-06-01T06:51:13.204Z,100560.78
2019-06-01T06:53:51.852Z,100556.06
2019-06-01T06:56:29.885Z,100556.65
2019-06-01T06:59:07.317Z,100558.57
2019-06-01T07:01:44.782Z,100552.92
2019-06-01T07:04:23.871Z,100542.15
2019-06-01T07:07:01.396Z,100545.45
2019-06-01T07:09:39.369Z,100538.69
2019-06-01T07:12:16.087Z,100538.19
2019-06-01T07:14:54.370Z,100525.97
2019-06-01T07:17:31.862Z,100519.77
2019-06-01T07:20:09.481Z,100516.83
2019-06-01T07:22:46.508Z,100518.97
2019-06-01T07:25:24.989Z,100510.91
2019-06-01T07:28:02.286Z,100511.05
2019-06-01T07:30:49.728Z,100502.56
2019-06-01T07:33:20.461Z,100500.45
2019-06-01T07:35:59.530Z,100486.27
2019-06-01T07:38:36.362Z,100476.47
2019-06-01T07:41:15.074Z,100471.06
2019-06-01T07:43:52.386Z,100467.67
2019-06-01T07:46:30.474Z,100461.70
2019-06-01T07:49:10.334Z,100464.20
2019-06-01T07:51:49.023Z,100464.27
2019-06-01T07:54:26.377Z,100454.97
2019-06-01T07:57:04.213Z,100449.20
2019-06-01T07:59:42.135Z,100447.09
2019-06-01T08:02:23.286Z,100440.84
2019-06-01T08:04:58.022Z,100443.65
2019-06-01T08:07:36.819Z,100430.13
2019-06-01T08:10:14.125Z,100415.73
2019-06-01T08:12:53.006Z,100415.17
2019-06-01T08:15:31.864Z,100403.43
2019-06-01T08:18:09.853Z,100400.98
2019-06-01T08:20:47.191Z,100398.42
2019-06-01T08:23:26.136Z,100391.11
2019-06-01T08:26:03.618Z,100392.78
2019-06-01T08:28:42.437Z,100388.12
2019-06-01T08:31:19.809Z,100386.94
2019-06-01T08:33:58.144Z,100389.02
2019-06-01T08:36:35.753Z,100388.48
2019-06-01T08:39:15.789Z,100390.88
2019-06-01T08:41:52.975Z,100396.41
2019-06-01T08:44:31.642Z,100390.97
2019-06-01T08:47:09.403Z,100387.54
2019-06-01T08:49:48.059Z,100385.30
2019-06-01T08:52:28.041Z,100382.92
2019-06-01T08:55:05.573Z,100383.52
2019-06-01T08:57:43.181Z,100384.16
2019-06-01T09:00:21.430Z,100390.66
2019-06-01T09:02:58.705Z,100395.28
2019-06-01T09:05:36.166Z,100388.26
2019-06-01T09:08:13.704Z,100393.78
2019-06-01T09:10:52.722Z,100398.58
2019-06-01T09:13:31.190Z,100406.78
2019-06-01T09:16:08.743Z,100412.34
2019-06-01T09:18:46.000Z,100405.05
2019-06-01T09:21:25.427Z,100411.32
2019-06-01T09:24:02.690Z,100404.92
2019-06-01T09:26:40.744Z,100398.88
2019-06-01T09:29:17.891Z,100406.76
2019-06-01T09:31:56.590Z,100398.98
2019-06-01T09:34:34.560Z,100393.34
2019-06-01T09:37:12.537Z,100394.31
2019-06-01T09:39:50.175Z,100396.42
2019-06-01T09:42:30.690Z,100401.16
2019-06-01T09:45:08.705Z,100398.08
2019-06-01T09:47:46.697Z,100406.77
2019-06-01T09:50:24.080Z,100397.99
2019-06-01T09:53:01.857Z,100409.56
2019-06-01T09:55:39.287Z,100408.56
2019-06-01T09:58:16.939Z,100414.39
2019-06-01T10:00:54.038Z,100421.53
2019-06-01T10:03:32.603Z,100424.23
2019-06-01T10:06:14.019Z,100421.66
2019-06-01T10:08:50.020Z,100420.84
2019-06-01T10:11:27.434Z,100423.01
2019-06-01T10:14:06.762Z,100424.38
2019-06-01T10:16:44.017Z,100419.78
2019-06-01T10:19:21.110Z,100420.80
2019-06-01T10:21:58.755Z,100429.86
2019-06-01T10:24:39.899Z,100433.27
2019-06-01T10:27:16.983Z,100437.69
2019-06-01T10:29:54.771Z,100440.30
2019-06-01T10:32:34.135Z,100438.34
2019-06-01T10:35:13.142Z,100452.34
2019-06-01T10:37:51.381Z,100454.59
2019-06-01T10:40:29.112Z,100445.14
2019-06-01T10:43:06.595Z,100454.95
2019-06-01T10:45:45.710Z,100462.91
2019-06-01T10:48:23.117Z,100470.03
2019-06-01T10:51:00.542Z,100458.42
2019-06-01T10:53:38.261Z,100456.95
2019-06-01T10:56:16.441Z,100456.91
2019-06-01T10:59:00.069Z,100456.39
2019-06-01T11:01:35.557Z,100467.45
2019-06-01T11:04:12.403Z,100467.22
2019-06-01T11:06:50.228Z,100468.33
2019-06-01T11:09:27.181Z,100465.23
2019-06-01T11:12:04.173Z,100463.53
2019-06-01T11:14:41.526Z,100475.52
2019-06-01T11:17:20.028Z,100473.98
2019-06-01T11:19:57.106Z,100491.86
2019-06-01T11:22:35.480Z,100489.55
2019-06-01T11:25:13.550Z,100484.62
2019-06-01T11:27:52.551Z,100485.64
2019-06-01T11:30:30.011Z,100483.56
2019-06-01T11:33:08.105Z,100486.03
2019-06-01T11:35:45.840Z,100485.55
2019-06-01T11:38:25.150Z,100488.58
2019-06-01T11:41:02.761Z,100471.20
2019-06-01T11:43:40.730Z,100497.31
2019-06-01T11:46:19.014Z,100500.38
2019-06-01T11:48:58.226Z,100513.23
2019-06-01T11:51:36.885Z,100519.92
2019-06-01T11:54:32.857Z,100532.23
2019-06-01T11:57:09.995Z,100521.05
2019-06-01T11:59:48.042Z,100521.80
2019-06-01T12:02:25.640Z,100528.13
2019-06-01T12:05:02.785Z,100534.49
2019-06-01T12:07:40.454Z,100528.75
2019-06-01T12:10:18.544Z,100530.45
2019-06-01T12:12:55.949Z,100532.09
2019-06-01T12:15:33.276Z,100533.62
2019-06-01T12:18:10.581Z,100538.78
2019-06-01T12:20:50.490Z,100537.86
2019-06-01T12:23:27.986Z,100543.97
2019-06-01T12:26:05.429Z,100539.15
2019-06-01T12:28:43.788Z,100542.09
2019-06-01T12:31:21.571Z,100541.15
2019-06-01T12:33:59.175Z,100536.55
2019-06-01T12:36:39.221Z,100535.03
2019-06-01T12:39:17.255Z,100545.42
2019-06-01T12:41:55.172Z,100556.80
2019-06-01T12:44:32.385Z,100563.20
2019-06-01T12:47:10.195Z,100573.31
2019-06-01T12:49:48.270Z,100589.22
2019-06-01T12:52:27.959Z,100586.67
2019-06-01T12:55:05.248Z,100591.52
2019-06-01T12:57:42.953Z,100588.73
2019-06-01T13:00:20.613Z,100598.69
2019-06-01T13:03:07.106Z,100600.30
2019-06-01T13:05:38.856Z,100600.95
2019-06-01T13:08:17.321Z,100602.59
2019-06-01T13:10:54.931Z,100616.33
2019-06-01T13:13:33.241Z,100619.91
2019-06-01T13:16:10.967Z,100622.06
2019-06-01T13:18:47.834Z,100630.59
2019-06-01T13:21:27.629Z,100639.25
2019-06-01T13:24:05.849Z,100648.64
2019-06-01T13:26:43.720Z,100656.63
2019-06-01T13:29:21.295Z,100653.27
2019-06-01T13:31:58.627Z,100662.30
2019-06-01T13:34:37.068Z,100671.05
2019-06-01T13:37:14.987Z,100685.29
2019-06-01T13:39:57.644Z,100685.84
2019-06-01T13:42:31.220Z,100688.16
2019-06-01T13:45:09.146Z,100687.41
2019-06-01T13:47:47.673Z,100697.62
2019-06-01T13:50:24.751Z,100690.83
2019-06-01T13:53:02.327Z,100690.41
2019-06-01T13:55:42.032Z,100690.09
2019-06-01T13:58:19.673Z,100690.08
2019-06-01T14:00:57.048Z,100701.13
2019-06-01T14:03:34.608Z,100705.52
2019-06-01T14:06:13.614Z,100707.63
2019-06-01T14:08:51.333Z,100712.72
2019-06-01T14:11:28.693Z,100721.19
2019-06-01T14:14:06.041Z,100728.53
2019-06-01T14:16:43.777Z,100731.73
2019-06-01T14:19:21.086Z,100740.38
2019-06-01T14:21:59.138Z,100741.86
2019-06-01T14:24:42.680Z,100744.75
2019-06-01T14:27:17.566Z,100747.73
2019-06-01T14:29:54.559Z,100754.41
2019-06-01T14:32:31.916Z,100748.91
2019-06-01T14:35:10.055Z,100756.38
2019-06-01T14:37:48.729Z,100758.87
2019-06-01T14:40:26.404Z,100766.33
2019-06-01T14:43:03.669Z,100768.14
2019-06-01T14:45:41.949Z,100763.48
2019-06-01T14:48:20.216Z,100770.05
2019-06-01T14:50:57.902Z,100784.96
2019-06-01T14:53:35.631Z,100788.27
2019-06-01T14:56:12.683Z,100795.23
2019-06-01T14:58:51.942Z,100802.95
2019-06-01T15:01:32.857Z,100809.37
2019-06-01T15:04:08.296Z,100811.69
2019-06-01T15:06:45.390Z,100806.48
2019-06-01T15:09:23.817Z,100805.96
2019-06-01T15:12:00.981Z,100805.45
2019-06-01T15:14:39.338Z,100809.29
2019-06-01T15:17:16.762Z,100810.84
2019-06-01T15:19:56.171Z,100805.44
2019-06-01T15:22:34.012Z,100814.91
2019-06-01T15:25:11.225Z,100822.24
2019-06-01T15:27:50.534Z,100823.93
2019-06-01T15:30:29.891Z,100829.77
2019-06-01T15:33:07.540Z,100843.69
2019-06-01T15:35:45.131Z,100846.91
2019-06-01T15:38:23.138Z,100850.39
2019-06-01T15:41:00.883Z,100851.22
2019-06-01T15:43:39.305Z,100853.23
2019-06-01T15:46:16.726Z,100850.18
2019-06-01T15:48:53.713Z,100852.69
2019-06-01T15:51:31.695Z,100853.55
2019-06-01T15:54:09.642Z,100857.47
2019-06-01T15:56:47.300Z,100857.80
2019-06-01T15:59:24.885Z,100838.70
2019-06-01T16:02:04.103Z,100855.37
2019-06-01T16:04:41.620Z,100852.20
2019-06-01T16:07:19.123Z,100845.30
2019-06-01T16:09:57.397Z,100844.99
2019-06-01T16:12:35.527Z,100842.21
2019-06-01T16:15:12.781Z,100844.52
2019-06-01T16:17:50.479Z,100838.19
2019-06-01T16:20:28.066Z,100838.56
2019-06-01T16:23:05.963Z,100835.38
2019-06-01T16:25:53.071Z,100841.83
2019-06-01T16:28:24.525Z,100852.21
2019-06-01T16:31:03.002Z,100855.54
2019-06-01T16:33:42.444Z,100844.52
2019-06-01T16:36:19.983Z,100846.92
2019-06-01T16:39:03.088Z,100848.64
2019-06-01T16:41:38.274Z,100840.73
2019-06-01T16:44:20.032Z,100847.78
2019-06-01T16:46:57.700Z,100845.58
2019-06-01T16:49:34.966Z,100841.70
2019-06-01T16:52:12.095Z,100841.34
2019-06-01T16:54:49.825Z,100837.63
2019-06-01T16:57:27.299Z,100830.36
2019-06-01T17:00:05.037Z,100824.41
2019-06-01T17:02:42.896Z,100827.09
2019-06-01T17:05:22.459Z,100815.60
2019-06-01T17:08:00.808Z,100821.77
2019-06-01T17:10:38.215Z,100812.56
2019-06-01T17:13:33.479Z,100814.44
2019-06-01T17:16:11.617Z,100815.17
2019-06-01T17:18:49.082Z,100803.39
2019-06-01T17:21:26.693Z,100810.88
2019-06-01T17:24:04.197Z,100811.95
2019-06-01T17:26:42.791Z,100805.91
2019-06-01T17:29:20.029Z,100802.36
2019-06-01T17:32:15.742Z,100797.08
2019-06-01T17:34:36.539Z,100793.23
2019-06-01T17:37:15.314Z,100791.23
2019-06-01T17:39:53.362Z,100786.73
2019-06-01T17:42:30.412Z,100785.08
2019-06-01T17:45:09.456Z,100781.66
2019-06-01T17:47:47.670Z,100760.70
2019-06-01T17:50:26.013Z,100783.34
2019-06-01T17:53:04.713Z,100773.92
2019-06-01T17:55:43.108Z,100781.28
2019-06-01T17:58:21.749Z,100755.24
2019-06-01T18:00:59.250Z,100777.33
2019-06-01T18:03:36.614Z,100770.28
2019-06-01T18:06:13.789Z,100774.30
2019-06-01T18:08:52.901Z,100772.38
2019-06-01T18:11:30.189Z,100759.84
2019-06-01T18:14:08.579Z,100761.88
2019-06-01T18:16:46.326Z,100762.28
2019-06-01T18:19:24.392Z,100755.91
2019-06-01T18:22:02.570Z,100752.30
2019-06-01T18:24:40.412Z,100746.39
2019-06-01T18:27:17.372Z,100747.17
2019-06-01T18:29:56.244Z,100742.30
2019-06-01T18:32:33.917Z,100739.61
2019-06-01T18:35:11.418Z,100732.62
2019-06-01T18:37:49.415Z,100731.06
2019-06-01T18:40:28.941Z,100730.48
2019-06-01T18:43:09.971Z,100721.52
2019-06-01T18:45:48.256Z,100716.41
2019-06-01T18:48:25.757Z,100710.89
2019-06-01T18:51:04.094Z,100715.20
2019-06-01T18:53:42.208Z,100712.23
2019-06-01T18:56:19.891Z,100706.83
2019-06-01T18:58:56.980Z,100705.45
2019-06-01T19:01:35.549Z,100698.44
2019-06-01T19:04:13.735Z,100698.75
2019-06-01T19:06:51.129Z,100695.58
2019-06-01T19:09:28.611Z,100698.98
2019-06-01T19:12:08.940Z,100691.70
2019-06-01T19:14:46.290Z,100695.64
2019-06-01T19:17:24.105Z,100698.84
2019-06-01T19:20:01.469Z,100694.09
2019-06-01T19:22:40.075Z,100691.08
2019-06-01T19:25:18.057Z,100684.11
2019-06-01T19:27:55.864Z,100693.61
2019-06-01T19:30:46.892Z,100659.52
2019-06-01T19:33:25.168Z,100675.77
2019-06-01T19:36:03.117Z,100677.20
2019-06-01T19:38:41.929Z,100680.17
2019-06-01T19:41:19.927Z,100674.07
2019-06-01T19:43:58.486Z,100676.66
2019-06-01T19:46:35.763Z,100677.83
2019-06-01T19:49:14.996Z,100670.53
2019-06-01T19:51:52.532Z,100671.22
2019-06-01T19:54:30.969Z,100671.13
2019-06-01T19:57:09.716Z,100672.81
2019-06-01T19:59:47.398Z,100677.20
2019-06-01T20:02:33.346Z,100676.89
2019-06-01T20:05:03.768Z,100683.19
2019-06-01T20:07:40.916Z,100679.40
2019-06-01T20:10:19.740Z,100679.58
2019-06-01T20:12:57.185Z,100671.67
2019-06-01T20:15:35.606Z,100660.81
2019-06-01T20:18:13.024Z,100657.05
2019-06-01T20:20:50.484Z,100656.16
2019-06-01T20:23:27.908Z,100655.06
2019-06-01T20:26:06.053Z,100658.52
2019-06-01T20:28:43.433Z,100657.49
2019-06-01T20:31:22.054Z,100654.20
2019-06-01T20:33:59.932Z,100656.56
2019-06-01T20:36:38.867Z,100656.21
2019-06-01T20:39:16.264Z,100654.05
2019-06-01T20:41:54.671Z,100651.50
2019-06-01T20:44:32.099Z,100643.73
2019-06-01T20:47:12.485Z,100643.33
2019-06-01T20:49:50.266Z,100655.24
2019-06-01T20:52:27.406Z,100667.46
2019-06-01T20:55:04.904Z,100670.60
2019-06-01T20:57:42.806Z,100676.80
2019-06-01T21:00:21.695Z,100682.02
2019-06-01T21:02:59.051Z,100698.34
2019-06-01T21:05:36.413Z,100697.16
2019-06-01T21:08:14.194Z,100695.99
2019-06-01T21:10:51.798Z,100695.45
2019-06-01T21:13:29.436Z,100695.99
2019-06-01T21:16:06.634Z,100702.69
2019-06-01T21:18:47.897Z,100711.25
2019-06-01T21:21:25.006Z,100706.60
2019-06-01T21:24:02.479Z,100702.75
2019-06-01T21:26:39.746Z,100692.66
2019-06-01T21:29:18.743Z,100697.64
2019-06-01T21:31:56.439Z,100700.77
2019-06-01T21:34:33.690Z,100692.67
2019-06-01T21:37:11.509Z,100678.37
2019-06-01T21:39:50.248Z,100681.13
2019-06-01T21:42:28.101Z,100689.33
2019-06-01T21:45:06.034Z,100694.10
2019-06-01T21:47:43.868Z,100693.31
2019-06-01T21:50:23.994Z,100697.08
2019-06-01T21:53:01.434Z,100705.34
2019-06-01T21:55:39.165Z,100702.87
2019-06-01T21:58:16.687Z,100700.77
2019-06-01T22:00:54.499Z,100695.80
2019-06-01T22:03:32.000Z,100689.62
2019-06-01T22:06:09.471Z,100685.50
2019-06-01T22:08:52.795Z,100684.36
2019-06-01T22:11:27.587Z,100679.70
2019-06-01T22:14:04.880Z,100679.00
2019-06-01T22:16:42.209Z,100680.34
2019-06-01T22:19:22.074Z,100679.61
2019-06-01T22:22:01.630Z,100677.87
2019-06-01T22:24:38.802Z,100676.27
2019-06-01T22:27:15.989Z,100679.23
2019-06-01T22:29:53.498Z,100677.69
2019-06-01T22:32:31.790Z,100678.84
2019-06-01T22:35:10.814Z,100676.50
2019-06-01T22:37:48.722Z,100675.88
2019-06-01T22:40:27.286Z,100677.63
2019-06-01T22:43:05.713Z,100670.97
2019-06-01T22:45:42.871Z,100671.33
2019-06-01T22:48:21.010Z,100670.38
2019-06-01T22:50:58.959Z,100673.06
2019-06-01T22:53:37.687Z,100666.24
2019-06-01T22:56:14.867Z,100670.22
2019-06-01T22:58:53.597Z,100679.49
2019-06-01T23:01:31.158Z,100688.42
2019-06-01T23:04:09.535Z,100695.59
2019-06-01T23:06:46.878Z,100704.23
2019-06-01T23:09:25.592Z,100700.23
2019-06-01T23:12:02.667Z,100692.39
2019-06-01T23:14:40.861Z,100690.38
2019-06-01T23:17:18.068Z,100691.44
2019-06-01T23:19:55.964Z,100706.68
2019-06-01T23:22:33.597Z,100717.38
2019-06-01T23:25:12.737Z,100724.63
2019-06-01T23:27:50.020Z,100721.66
2019-06-01T23:30:28.280Z,100714.83
2019-06-01T23:33:05.782Z,100713.38
2019-06-01T23:35:44.050Z,100722.17
2019-06-01T23:38:22.531Z,100731.89
2019-06-01T23:40:59.991Z,100751.69
2019-06-01T23:43:38.677Z,100758.83
2019-06-01T23:46:16.615Z,100771.88
2019-06-01T23:48:53.959Z,100782.50
2019-06-01T23:51:32.046Z,100789.64
2019-06-01T23:54:09.348Z,100790.23
2019-06-01T23:56:48.989Z,100787.27
2019-06-01T23:59:27.966Z,100790.59
